Time;durP1;ratioP1;P1;durP2;ratioP2;P2;SDS_P1;SDS_P2;PMS_P1;PMS_P2;Temp;Humidity;BMP_temperature;BMP_pressure;BME280_temperature;BME280_humidity;BME280_pressure;Samples;Min_cycle;Max_cycle;Signal;HPM_P1;HPM_P2
2023/05/15 00:01:35;;;;;;;33.03;19.23;;;12.50;99.90;;;;;;5015837;28;20053;-74
2023/05/15 00:04:01;;;;;;;29.85;18.00;;;12.50;99.90;;;;;;5015767;28;20046;-73
2023/05/15 00:06:27;;;;;;;30.52;17.60;;;12.50;99.90;;;;;;5015748;28;20046;-74
2023/05/15 00:08:52;;;;;;;33.28;18.38;;;12.50;99.90;;;;;;5016252;28;20050;-73
2023/05/15 00:11:19;;;;;;;36.13;18.27;;;12.50;99.90;;;;;;5016394;28;20095;-74
2023/05/15 00:13:44;;;;;;;29.75;17.55;;;12.50;99.90;;;;;;5016035;28;20046;-73
2023/05/15 00:16:10;;;;;;;28.83;16.98;;;12.50;99.90;;;;;;5016406;28;20049;-73
2023/05/15 00:18:36;;;;;;;34.63;17.08;;;12.50;99.90;;;;;;5016053;28;20463;-74
2023/05/15 00:21:01;;;;;;;32.63;17.77;;;12.60;99.90;;;;;;5014747;28;20387;-74
2023/05/15 00:23:27;;;;;;;41.75;18.00;;;12.60;99.90;;;;;;5015864;28;20581;-73
2023/05/15 00:25:53;;;;;;;36.58;17.98;;;12.60;99.90;;;;;;5015397;28;20054;-73
2023/05/15 00:28:18;;;;;;;48.50;18.02;;;12.60;99.90;;;;;;5015386;28;20125;-73
2023/05/15 00:30:44;;;;;;;28.83;17.02;;;12.50;99.90;;;;;;5014369;28;20053;-73
2023/05/15 00:33:10;;;;;;;36.08;18.25;;;12.50;99.90;;;;;;5015761;28;20041;-74
2023/05/15 00:35:35;;;;;;;41.28;17.50;;;12.40;99.90;;;;;;5014331;28;20545;-74
2023/05/15 00:38:01;;;;;;;27.05;16.42;;;12.50;99.90;;;;;;5016017;28;20092;-74
2023/05/15 00:40:28;;;;;;;29.08;16.73;;;12.40;99.90;;;;;;5015691;28;20463;-74
2023/05/15 00:42:54;;;;;;;27.08;17.30;;;12.50;99.90;;;;;;5014637;28;20088;-74
2023/05/15 00:45:21;;;;;;;35.65;18.05;;;12.50;99.90;;;;;;5015068;28;20046;-74
2023/05/15 00:47:48;;;;;;;28.58;17.15;;;12.50;99.90;;;;;;5015022;28;20057;-74
2023/05/15 00:50:14;;;;;;;28.63;16.90;;;12.50;99.90;;;;;;5015742;28;20375;-73
2023/05/15 00:52:41;;;;;;;32.42;18.90;;;12.50;99.90;;;;;;5014859;28;20085;-74
2023/05/15 00:55:07;;;;;;;47.65;19.05;;;12.50;99.90;;;;;;5014802;28;20081;-73
2023/05/15 00:57:33;;;;;;;31.27;18.23;;;12.50;99.90;;;;;;5013912;28;20497;-73
2023/05/15 01:00:01;;;;;;;31.00;17.80;;;12.50;99.90;;;;;;5015302;28;20041;-73
2023/05/15 01:02:27;;;;;;;31.00;18.65;;;12.50;99.90;;;;;;5014465;28;20402;-74
2023/05/15 01:04:52;;;;;;;30.13;18.98;;;12.50;99.90;;;;;;5014708;28;20049;-74
2023/05/15 01:07:19;;;;;;;27.88;17.70;;;12.50;99.90;;;;;;5014652;28;20049;-74
2023/05/15 01:09:48;;;;;;;30.45;17.70;;;12.50;99.90;;;;;;5013528;28;20046;-74
2023/05/15 01:12:15;;;;;;;33.45;18.45;;;12.50;99.90;;;;;;5014547;28;20093;-73
2023/05/15 01:14:41;;;;;;;30.52;17.90;;;12.50;99.90;;;;;;5013569;28;20400;-74
2023/05/15 01:17:07;;;;;;;32.08;18.25;;;12.50;99.90;;;;;;5014577;28;20100;-74
2023/05/15 01:19:33;;;;;;;32.50;19.60;;;12.50;99.90;;;;;;5014474;28;20042;-74
2023/05/15 01:22:20;;;;;;;34.65;20.13;;;12.50;99.90;;;;;;5014164;28;20097;-74
2023/05/15 01:25:14;;;;;;;35.97;20.63;;;12.40;99.90;;;;;;5014879;28;20045;-74
2023/05/15 01:27:46;;;;;;;38.42;19.48;;;12.40;99.90;;;;;;5014230;28;20367;-74
2023/05/15 01:30:27;;;;;;;38.30;19.98;;;12.40;99.90;;;;;;5014264;28;20049;-74
2023/05/15 01:33:07;;;;;;;35.80;19.33;;;12.30;99.90;;;;;;5014512;28;20077;-74
2023/05/15 01:35:44;;;;;;;34.00;19.13;;;12.20;99.90;;;;;;5015026;28;20049;-74
2023/05/15 01:38:52;;;;;;;29.48;17.98;;;12.20;99.90;;;;;;5014287;28;20050;-73
2023/05/15 01:41:25;;;;;;;38.42;18.80;;;12.10;99.90;;;;;;5009234;28;20075;-74
2023/05/15 01:44:12;;;;;;;45.95;18.35;;;12.10;99.90;;;;;;5014973;28;20418;-74
2023/05/15 01:46:39;;;;;;;38.33;18.13;;;12.00;99.90;;;;;;5014008;28;20066;-74
2023/05/15 01:49:10;;;;;;;42.55;17.88;;;12.00;99.90;;;;;;5014063;28;20045;-73
2023/05/15 01:51:37;;;;;;;33.63;18.75;;;12.00;99.90;;;;;;5014787;28;20045;-74
2023/05/15 01:54:05;;;;;;;37.85;19.50;;;12.00;99.90;;;;;;5015949;28;20081;-74
2023/05/15 01:56:31;;;;;;;42.45;17.67;;;12.00;99.90;;;;;;5015791;28;20379;-74
2023/05/15 01:58:59;;;;;;;39.22;17.77;;;11.90;99.90;;;;;;5015695;28;20046;-74
2023/05/15 02:01:26;;;;;;;39.58;17.42;;;11.80;99.90;;;;;;5013875;28;20497;-74
2023/05/15 02:03:54;;;;;;;27.23;16.65;;;11.80;99.90;;;;;;5013891;28;20122;-74
2023/05/15 02:06:20;;;;;;;42.28;17.70;;;11.80;99.90;;;;;;5013859;28;20395;-74
2023/05/15 02:08:47;;;;;;;27.05;16.42;;;11.70;99.90;;;;;;5013824;28;20187;-74
2023/05/15 02:11:13;;;;;;;31.92;15.40;;;11.70;99.90;;;;;;5013444;28;20529;-74
2023/05/15 02:13:41;;;;;;;26.52;16.52;;;11.70;99.90;;;;;;5013793;28;20079;-74
2023/05/15 02:16:06;;;;;;;27.38;16.60;;;11.60;99.90;;;;;;5013499;28;20143;-74
2023/05/15 02:18:32;;;;;;;26.13;16.45;;;11.60;99.90;;;;;;4997268;28;20662;-74
2023/05/15 02:21:01;;;;;;;51.95;16.73;;;11.60;99.90;;;;;;5013681;28;20376;-74
2023/05/15 02:23:27;;;;;;;28.38;16.52;;;11.60;99.90;;;;;;5013708;28;20398;-74
2023/05/15 02:26:17;;;;;;;27.70;17.13;;;11.60;99.90;;;;;;5013026;28;20054;-74
2023/05/15 02:28:57;;;;;;;52.60;18.67;;;11.60;99.90;;;;;;5013609;28;20506;-73
2023/05/15 02:31:39;;;;;;;28.23;15.77;;;11.60;99.90;;;;;;5013530;28;20363;-74
2023/05/15 02:34:13;;;;;;;29.27;16.17;;;11.50;99.90;;;;;;5013564;28;20042;-74
2023/05/15 02:36:41;;;;;;;33.90;17.33;;;11.50;99.90;;;;;;5013826;28;20467;-74
2023/05/15 02:39:10;;;;;;;31.83;17.50;;;11.50;99.90;;;;;;5013530;28;20090;-73
2023/05/15 02:41:36;;;;;;;30.20;16.80;;;11.50;99.90;;;;;;5013583;28;20046;-74
2023/05/15 02:44:03;;;;;;;37.97;17.10;;;11.50;99.90;;;;;;5014029;28;20050;-74
2023/05/15 02:46:29;;;;;;;38.55;17.35;;;11.50;99.90;;;;;;5013436;28;20136;-73
2023/05/15 02:48:55;;;;;;;36.95;16.25;;;11.50;99.90;;;;;;5013395;28;20128;-74
2023/05/15 02:51:21;;;;;;;32.67;16.90;;;11.50;99.90;;;;;;5013374;28;20081;-74
2023/05/15 02:53:47;;;;;;;36.53;19.30;;;11.50;99.90;;;;;;5013331;28;20541;-74
2023/05/15 02:56:13;;;;;;;29.30;16.90;;;11.40;99.90;;;;;;5013361;28;20050;-73
2023/05/15 02:58:40;;;;;;;43.60;17.48;;;11.40;99.90;;;;;;5013325;28;20446;-74
2023/05/15 03:01:06;;;;;;;42.75;17.50;;;11.40;99.90;;;;;;5013314;28;20488;-73
2023/05/15 03:03:31;;;;;;;92.45;20.20;;;11.40;99.90;;;;;;5013306;28;20046;-73
2023/05/15 03:05:59;;;;;;;32.55;17.73;;;11.40;99.90;;;;;;5014159;28;20057;-74
2023/05/15 03:08:25;;;;;;;30.70;18.65;;;11.40;99.90;;;;;;5017422;28;20416;-73
2023/05/15 03:10:51;;;;;;;38.65;18.05;;;11.50;99.90;;;;;;5016904;28;20054;-73
2023/05/15 03:13:16;;;;;;;30.95;17.83;;;11.50;99.90;;;;;;5016720;28;20368;-73
2023/05/15 03:15:45;;;;;;;44.67;18.45;;;11.40;99.90;;;;;;5017504;28;20115;-73
2023/05/15 03:18:11;;;;;;;50.58;19.17;;;11.40;99.90;;;;;;5016662;28;20058;-73
2023/05/15 03:20:36;;;;;;;36.72;18.98;;;11.40;99.90;;;;;;5016536;28;20493;-73
2023/05/15 03:23:02;;;;;;;54.72;18.55;;;11.40;99.90;;;;;;5016355;28;20068;-74
2023/05/15 03:25:28;;;;;;;66.88;19.02;;;11.40;99.90;;;;;;5016594;28;20054;-73
2023/05/15 03:27:53;;;;;;;41.65;18.25;;;11.30;99.90;;;;;;5016611;28;20057;-74
2023/05/15 03:30:19;;;;;;;41.92;19.05;;;11.30;99.90;;;;;;5015510;28;20049;-73
2023/05/15 03:32:45;;;;;;;49.58;18.58;;;11.30;99.90;;;;;;5016466;28;20104;-74
2023/05/15 03:35:10;;;;;;;59.88;19.05;;;11.30;99.90;;;;;;5016856;28;20546;-74
2023/05/15 03:37:36;;;;;;;60.38;19.23;;;11.20;99.90;;;;;;5016956;28;20057;-73
2023/05/15 03:40:02;;;;;;;34.55;17.90;;;11.20;99.90;;;;;;5015584;28;20050;-73
2023/05/15 03:42:28;;;;;;;39.38;17.52;;;11.20;99.90;;;;;;5015980;28;20486;-73
2023/05/15 03:44:55;;;;;;;138.50;23.27;;;11.20;99.90;;;;;;5016501;28;20048;-73
2023/05/15 03:47:21;;;;;;;44.47;18.75;;;11.20;99.90;;;;;;5016939;28;20390;-74
2023/05/15 03:49:46;;;;;;;29.85;17.65;;;11.20;99.90;;;;;;5015781;28;20047;-73
2023/05/15 03:52:12;;;;;;;32.00;17.38;;;11.20;99.90;;;;;;5016337;28;20046;-74
2023/05/15 03:54:39;;;;;;;31.90;17.77;;;11.30;99.90;;;;;;5015590;28;20128;-73
2023/05/15 03:57:05;;;;;;;39.38;18.52;;;11.30;99.90;;;;;;5015667;28;20062;-73
2023/05/15 03:59:31;;;;;;;32.95;17.08;;;11.30;99.90;;;;;;5015816;28;20062;-73
2023/05/15 04:01:56;;;;;;;35.92;17.92;;;11.30;99.90;;;;;;5015727;28;20038;-73
2023/05/15 04:04:22;;;;;;;33.17;16.77;;;11.30;99.90;;;;;;5015761;28;20081;-73
2023/05/15 04:06:49;;;;;;;38.55;17.38;;;11.20;99.90;;;;;;5016348;28;20042;-73
2023/05/15 04:09:15;;;;;;;32.83;17.58;;;11.20;99.90;;;;;;5015733;28;20056;-73
2023/05/15 04:11:40;;;;;;;50.03;18.40;;;11.20;99.90;;;;;;5015977;28;20050;-73
2023/05/15 04:14:06;;;;;;;35.05;17.35;;;11.20;99.90;;;;;;5015514;28;20041;-73
2023/05/15 04:16:32;;;;;;;30.48;17.55;;;11.20;99.90;;;;;;5014646;28;20041;-73
2023/05/15 04:18:57;;;;;;;26.60;16.55;;;11.20;99.90;;;;;;5014718;28;20053;-73
2023/05/15 04:21:23;;;;;;;27.35;16.92;;;11.20;99.90;;;;;;5015497;28;20049;-73
2023/05/15 04:23:49;;;;;;;31.30;17.73;;;11.20;99.90;;;;;;5015070;28;20050;-74
2023/05/15 04:26:15;;;;;;;27.92;16.63;;;11.20;99.90;;;;;;5016226;28;20053;-73
2023/05/15 04:28:40;;;;;;;26.23;16.90;;;11.20;99.90;;;;;;5015399;28;20131;-73
2023/05/15 04:31:06;;;;;;;29.33;17.52;;;11.20;99.90;;;;;;5015903;28;20050;-73
2023/05/15 04:33:32;;;;;;;30.48;17.23;;;11.20;99.90;;;;;;5014601;28;20449;-73
2023/05/15 04:35:57;;;;;;;40.25;16.20;;;11.20;99.90;;;;;;5015270;28;20049;-73
2023/05/15 04:38:23;;;;;;;31.50;16.67;;;11.20;99.90;;;;;;5014074;28;20050;-73
2023/05/15 04:40:50;;;;;;;28.50;17.27;;;11.20;99.90;;;;;;5015125;28;20049;-73
2023/05/15 04:43:15;;;;;;;31.60;17.60;;;11.10;99.90;;;;;;5015050;28;20042;-73
2023/05/15 04:45:41;;;;;;;32.45;17.92;;;11.10;99.90;;;;;;5015065;28;20050;-73
2023/05/15 04:48:07;;;;;;;34.80;17.02;;;11.10;99.90;;;;;;5015572;28;20046;-73
2023/05/15 04:50:32;;;;;;;27.42;16.77;;;11.00;99.90;;;;;;5014912;28;20437;-73
2023/05/15 04:52:58;;;;;;;25.80;15.90;;;11.00;99.90;;;;;;5015111;28;20041;-73
2023/05/15 04:55:24;;;;;;;27.58;17.02;;;11.00;99.90;;;;;;5014204;28;20132;-73
2023/05/15 04:57:50;;;;;;;28.42;17.13;;;11.00;99.90;;;;;;5015164;28;20052;-73
2023/05/15 05:00:16;;;;;;;27.90;17.17;;;11.00;99.90;;;;;;5015078;28;20463;-73
2023/05/15 05:02:44;;;;;;;27.83;17.33;;;11.00;99.90;;;;;;5014079;28;20048;-73
2023/05/15 05:05:10;;;;;;;34.85;17.60;;;11.00;99.90;;;;;;5014694;28;20046;-73
2023/05/15 05:07:36;;;;;;;28.27;17.77;;;11.00;99.90;;;;;;5014672;28;20557;-73
2023/05/15 05:10:04;;;;;;;28.08;17.45;;;11.00;99.90;;;;;;5014943;28;20054;-73
2023/05/15 05:12:29;;;;;;;28.50;16.20;;;11.00;99.90;;;;;;5013690;28;20454;-74
2023/05/15 05:14:55;;;;;;;27.98;16.40;;;11.10;99.90;;;;;;5014778;28;20033;-73
2023/05/15 05:17:21;;;;;;;31.17;16.45;;;11.10;99.90;;;;;;5015326;28;20492;-73
2023/05/15 05:19:47;;;;;;;32.25;16.13;;;11.10;99.90;;;;;;5013641;28;20141;-73
2023/05/15 05:22:13;;;;;;;28.33;15.95;;;11.10;99.90;;;;;;5014274;28;20065;-73
2023/05/15 05:24:38;;;;;;;28.70;14.80;;;11.00;99.90;;;;;;5014768;28;20124;-73
2023/05/15 05:27:05;;;;;;;25.20;15.13;;;11.00;99.90;;;;;;5014440;28;20046;-73
2023/05/15 05:29:31;;;;;;;24.38;15.10;;;11.00;99.90;;;;;;5014296;28;20053;-73
2023/05/15 05:31:56;;;;;;;25.40;15.95;;;11.00;99.90;;;;;;5014309;28;20433;-73
2023/05/15 05:34:22;;;;;;;26.50;14.88;;;11.00;99.90;;;;;;5014158;28;20045;-72
2023/05/15 05:36:48;;;;;;;26.25;14.80;;;10.90;99.90;;;;;;5014257;28;20107;-73
2023/05/15 05:39:18;;;;;;;25.27;14.77;;;10.90;99.90;;;;;;5014181;28;20041;-73
2023/05/15 05:41:44;;;;;;;19.80;13.00;;;10.90;99.90;;;;;;5014137;28;20099;-73
2023/05/15 05:44:10;;;;;;;21.38;14.02;;;10.80;99.90;;;;;;5014115;28;20117;-73
2023/05/15 05:46:36;;;;;;;20.38;13.57;;;10.90;99.90;;;;;;5014051;28;20057;-73
2023/05/15 05:49:02;;;;;;;22.75;13.85;;;10.90;99.90;;;;;;5012841;28;20045;-73
2023/05/15 05:51:27;;;;;;;23.52;14.32;;;10.90;99.90;;;;;;5013940;28;20046;-73
2023/05/15 05:53:53;;;;;;;25.15;15.30;;;10.90;99.90;;;;;;5013893;28;20045;-73
2023/05/15 05:56:20;;;;;;;22.35;13.80;;;11.00;99.90;;;;;;5013681;28;20054;-73
2023/05/15 05:58:46;;;;;;;22.25;14.25;;;11.00;99.90;;;;;;5013976;28;20103;-73
2023/05/15 06:01:12;;;;;;;28.55;15.43;;;10.90;99.90;;;;;;5013880;28;20041;-73
2023/05/15 06:03:38;;;;;;;27.80;13.95;;;10.90;99.90;;;;;;5014420;28;20045;-72
2023/05/15 06:06:04;;;;;;;26.58;15.48;;;10.90;99.90;;;;;;5013831;28;20046;-72
2023/05/15 06:08:30;;;;;;;27.50;15.48;;;10.90;99.90;;;;;;5013843;28;20041;-73
2023/05/15 06:10:56;;;;;;;25.35;15.68;;;10.90;99.90;;;;;;5012642;28;20048;-73
2023/05/15 06:13:21;;;;;;;21.50;14.00;;;10.90;99.90;;;;;;5012833;28;20038;-73
2023/05/15 06:15:47;;;;;;;24.02;14.90;;;10.80;99.90;;;;;;5014495;28;20041;-64
2023/05/15 06:18:13;;;;;;;22.13;13.20;;;10.80;99.90;;;;;;5013785;28;20579;-64
2023/05/15 06:20:41;;;;;;;22.52;14.38;;;10.80;99.90;;;;;;5013651;28;20493;-64
2023/05/15 06:23:07;;;;;;;22.73;14.45;;;10.90;99.90;;;;;;5013935;28;20056;-64
2023/05/15 06:25:32;;;;;;;26.35;15.68;;;10.80;99.90;;;;;;5014144;28;20058;-64
2023/05/15 06:27:58;;;;;;;25.40;14.75;;;10.80;99.90;;;;;;5013556;28;20092;-64
2023/05/15 06:30:24;;;;;;;23.92;14.27;;;10.80;99.90;;;;;;5013588;28;20593;-64
2023/05/15 06:32:50;;;;;;;25.45;14.75;;;10.80;99.90;;;;;;5013616;28;20045;-64
2023/05/15 06:35:15;;;;;;;25.95;16.13;;;10.80;99.90;;;;;;5012205;28;20088;-64
2023/05/15 06:37:41;;;;;;;25.20;15.55;;;10.80;99.90;;;;;;5013428;28;20041;-64
2023/05/15 06:40:07;;;;;;;23.60;14.88;;;10.80;99.90;;;;;;5013784;28;20105;-64
2023/05/15 06:42:33;;;;;;;27.08;15.85;;;10.90;99.90;;;;;;5016960;28;20038;-64
2023/05/15 06:44:59;;;;;;;23.27;14.57;;;10.90;99.90;;;;;;5017354;28;20048;-64
2023/05/15 06:47:25;;;;;;;23.55;13.90;;;11.00;99.90;;;;;;5017865;28;20088;-64
2023/05/15 06:49:52;;;;;;;20.60;13.50;;;11.00;99.90;;;;;;5017238;28;20081;-64
2023/05/15 06:52:19;;;;;;;22.40;14.05;;;11.00;99.90;;;;;;5017197;28;20045;-64
2023/05/15 06:54:45;;;;;;;22.35;13.02;;;10.90;99.90;;;;;;5017125;28;20101;-64
2023/05/15 06:57:11;;;;;;;21.88;13.98;;;10.90;99.90;;;;;;5017118;28;20054;-64
2023/05/15 06:59:37;;;;;;;19.70;12.88;;;11.00;99.90;;;;;;5017081;28;20458;-64
2023/05/15 07:02:03;;;;;;;20.92;12.38;;;11.10;99.90;;;;;;5015841;28;20046;-64
2023/05/15 07:04:29;;;;;;;20.05;12.90;;;11.20;99.90;;;;;;5016198;28;20041;-64
2023/05/15 07:06:56;;;;;;;20.45;12.57;;;11.30;99.90;;;;;;5016912;28;20057;-64
2023/05/15 07:09:21;;;;;;;23.73;13.52;;;11.40;99.90;;;;;;5016524;28;20557;-64
2023/05/15 07:11:47;;;;;;;21.67;14.45;;;11.50;99.90;;;;;;5017387;28;20177;-64
2023/05/15 07:14:13;;;;;;;22.40;13.43;;;11.60;99.90;;;;;;5017314;28;20465;-64
2023/05/15 07:16:38;;;;;;;20.55;13.68;;;11.70;99.90;;;;;;5016741;28;20136;-64
2023/05/15 07:19:04;;;;;;;20.75;13.05;;;11.90;99.90;;;;;;5016727;28;20048;-64
2023/05/15 07:21:30;;;;;;;20.17;13.05;;;12.10;99.90;;;;;;5015421;28;20050;-64
2023/05/15 07:23:55;;;;;;;19.60;13.30;;;12.10;99.90;;;;;;5016436;28;20115;-64
2023/05/15 07:26:21;;;;;;;19.42;12.93;;;12.30;99.90;;;;;;5016178;28;20085;-64
2023/05/15 07:28:47;;;;;;;20.20;13.25;;;12.40;99.90;;;;;;5016749;28;20054;-65
2023/05/15 07:31:12;;;;;;;19.35;12.60;;;12.50;99.90;;;;;;5016396;28;20052;-65
2023/05/15 07:33:38;;;;;;;19.35;12.02;;;12.60;99.90;;;;;;5016202;28;20045;-65
2023/05/15 07:36:04;;;;;;;21.40;13.27;;;12.70;99.90;;;;;;5016363;28;20053;-64
2023/05/15 07:38:31;;;;;;;18.55;13.00;;;13.00;99.90;;;;;;5016539;28;20045;-64
2023/05/15 07:40:56;;;;;;;17.13;12.00;;;13.10;99.90;;;;;;5016249;28;20053;-65
2023/05/15 07:43:22;;;;;;;18.17;12.18;;;13.20;99.90;;;;;;5016210;28;20158;-65
2023/05/15 07:45:48;;;;;;;19.75;12.77;;;13.30;99.90;;;;;;5016208;28;20057;-66
2023/05/15 07:48:18;;;;;;;17.20;11.82;;;13.40;99.90;;;;;;5016157;28;20050;-66
2023/05/15 07:50:45;;;;;;;17.75;12.27;;;13.50;99.90;;;;;;4999102;28;20390;-65
2023/05/15 07:53:12;;;;;;;15.40;11.60;;;13.60;99.90;;;;;;5014685;28;20045;-66
2023/05/15 07:55:39;;;;;;;17.60;12.40;;;13.60;99.90;;;;;;5015940;28;20173;-66
2023/05/15 07:58:06;;;;;;;20.10;12.43;;;13.70;99.90;;;;;;5015953;28;20041;-66
2023/05/15 08:00:32;;;;;;;17.05;12.07;;;13.90;99.90;;;;;;5016104;28;20050;-66
2023/05/15 08:02:58;;;;;;;17.45;11.40;;;14.00;99.90;;;;;;5015806;28;20457;-66
2023/05/15 08:05:24;;;;;;;17.05;12.02;;;14.20;99.90;;;;;;5016413;28;20085;-66
2023/05/15 08:07:50;;;;;;;18.15;11.25;;;14.20;99.90;;;;;;5014500;28;20189;-66
2023/05/15 08:10:16;;;;;;;15.95;11.80;;;14.20;99.90;;;;;;5016205;28;20054;-66
2023/05/15 08:12:45;;;;;;;15.00;10.93;;;14.20;99.90;;;;;;5015623;28;20482;-66
2023/05/15 08:15:11;;;;;;;13.27;9.82;;;14.30;99.90;;;;;;5014109;28;20543;-66
2023/05/15 08:17:37;;;;;;;14.88;10.20;;;14.40;99.90;;;;;;5015794;28;20037;-66
2023/05/15 08:20:03;;;;;;;13.68;10.13;;;14.50;99.90;;;;;;5015497;28;20506;-65
2023/05/15 08:22:29;;;;;;;13.48;10.38;;;14.80;99.90;;;;;;5015635;28;20077;-65
2023/05/15 08:24:55;;;;;;;15.05;10.05;;;14.90;99.90;;;;;;5015593;28;20041;-65
2023/05/15 08:27:21;;;;;;;13.88;10.10;;;15.00;99.90;;;;;;5015280;28;20042;-65
2023/05/15 08:29:47;;;;;;;12.35;9.00;;;15.10;99.90;;;;;;5014991;28;20045;-65
2023/05/15 08:32:12;;;;;;;11.23;9.02;;;15.20;99.90;;;;;;5015496;28;20048;-65
2023/05/15 08:34:38;;;;;;;13.32;9.80;;;15.30;99.90;;;;;;5015389;28;20467;-65
2023/05/15 08:37:05;;;;;;;11.98;9.05;;;15.50;99.90;;;;;;5015136;28;20495;-65
2023/05/15 08:39:31;;;;;;;12.68;8.88;;;15.60;99.90;;;;;;5015710;28;20053;-65
2023/05/15 08:42:04;;;;;;;11.70;8.90;;;15.70;99.90;;;;;;5015441;28;20376;-65
2023/05/15 08:44:30;;;;;;;13.98;10.00;;;15.80;99.90;;;;;;5015038;28;20091;-65
2023/05/15 08:46:57;;;;;;;12.55;10.18;;;15.90;99.90;;;;;;5014457;28;20041;-65
2023/05/15 08:49:46;;;;;;;10.70;9.45;;;16.00;99.90;;;;;;5015076;28;20070;-65
2023/05/15 08:52:12;;;;;;;11.98;9.15;;;16.10;99.90;;;;;;5015474;28;20054;-65
2023/05/15 08:54:39;;;;;;;11.85;9.43;;;16.10;99.90;;;;;;5013717;28;20053;-65
2023/05/15 08:57:06;;;;;;;14.25;10.05;;;16.10;99.90;;;;;;5015109;28;20042;-65
2023/05/15 08:59:31;;;;;;;15.68;9.40;;;16.10;99.90;;;;;;5014831;28;20050;-65
2023/05/15 09:01:58;;;;;;;12.20;9.52;;;16.20;99.90;;;;;;5014861;28;20095;-63
2023/05/15 09:04:24;;;;;;;13.75;9.48;;;16.30;99.90;;;;;;5014872;28;20125;-63
2023/05/15 09:06:50;;;;;;;11.77;9.30;;;16.40;99.90;;;;;;5014756;28;20526;-63
2023/05/15 09:09:17;;;;;;;11.73;8.75;;;16.60;99.90;;;;;;5015218;28;20041;-63
2023/05/15 09:11:44;;;;;;;12.55;9.43;;;16.70;99.90;;;;;;5014330;28;20486;-63
2023/05/15 09:14:10;;;;;;;12.43;9.07;;;16.90;99.90;;;;;;5014162;28;20544;-63
2023/05/15 09:16:37;;;;;;;10.10;8.48;;;17.00;99.90;;;;;;5014596;28;20088;-63
2023/05/15 09:19:05;;;;;;;10.48;8.30;;;17.00;99.90;;;;;;5014500;28;20453;-63
2023/05/15 09:21:30;;;;;;;10.48;8.02;;;17.10;99.90;;;;;;5014062;28;20056;-63
2023/05/15 09:24:15;;;;;;;10.35;8.45;;;17.20;99.90;;;;;;5014995;28;20054;-63
2023/05/15 09:26:41;;;;;;;12.90;9.05;;;17.30;99.90;;;;;;5014327;28;20054;-63
2023/05/15 09:29:08;;;;;;;10.63;8.48;;;17.40;99.90;;;;;;5014423;28;20092;-64
2023/05/15 09:31:34;;;;;;;11.27;8.35;;;17.50;99.90;;;;;;5013029;28;20064;-64
2023/05/15 09:34:00;;;;;;;11.35;9.30;;;17.60;99.90;;;;;;5014758;28;20042;-65
2023/05/15 09:36:28;;;;;;;11.32;9.30;;;17.80;99.90;;;;;;5014252;28;20128;-64
2023/05/15 09:39:00;;;;;;;10.52;8.45;;;18.00;99.90;;;;;;5014769;28;20049;-64
2023/05/15 09:41:27;;;;;;;10.57;8.13;;;18.10;99.90;;;;;;5014147;28;20045;-64
2023/05/15 09:43:55;;;;;;;9.23;7.65;;;18.30;99.90;;;;;;5014677;28;20045;-64
2023/05/15 09:46:22;;;;;;;9.70;8.00;;;18.50;99.90;;;;;;5013797;28;20576;-64
2023/05/15 09:48:48;;;;;;;8.95;7.72;;;18.50;99.90;;;;;;5014350;28;20099;-64
2023/05/15 09:51:16;;;;;;;10.43;7.50;;;18.60;99.90;;;;;;5013977;28;20057;-64
2023/05/15 09:53:42;;;;;;;8.73;7.28;;;18.70;99.90;;;;;;5013909;28;20050;-64
2023/05/15 09:56:11;;;;;;;9.98;7.35;;;18.70;99.90;;;;;;5013951;28;20042;-64
2023/05/15 09:58:36;;;;;;;10.68;7.90;;;18.50;99.90;;;;;;5014520;28;20042;-64
2023/05/15 10:01:02;;;;;;;7.68;6.82;;;18.60;99.90;;;;;;5012970;28;20442;-64
2023/05/15 10:03:28;;;;;;;10.27;7.82;;;18.70;99.90;;;;;;5014684;28;20390;-64
2023/05/15 10:06:02;;;;;;;10.57;7.32;;;18.70;99.90;;;;;;5013841;28;20053;-64
2023/05/15 10:08:28;;;;;;;8.18;7.15;;;18.80;99.90;;;;;;5013853;28;20045;-64
2023/05/15 10:10:57;;;;;;;8.45;7.10;;;18.80;99.90;;;;;;5013492;28;20057;-64
2023/05/15 10:13:24;;;;;;;9.85;6.93;;;18.80;99.90;;;;;;5013299;28;20138;-64
2023/05/15 10:15:51;;;;;;;8.95;6.57;;;19.00;99.90;;;;;;5014132;28;20052;-64
2023/05/15 10:18:20;;;;;;;8.27;6.20;;;19.30;99.90;;;;;;5017935;28;20352;-65
2023/05/15 10:20:46;;;;;;;8.38;6.80;;;19.50;99.90;;;;;;5018294;28;20059;-64
2023/05/15 10:23:14;;;;;;;7.53;5.63;;;19.60;99.90;;;;;;5017171;28;20054;-65
2023/05/15 10:25:47;;;;;;;5.85;5.07;;;19.70;99.90;;;;;;5017625;28;20049;-65
2023/05/15 10:28:16;;;;;;;8.43;5.47;;;19.80;99.90;;;;;;5018500;28;20046;-65
2023/05/15 10:30:42;;;;;;;10.50;5.40;;;19.80;99.90;;;;;;5017177;28;20525;-65
2023/05/15 10:33:10;;;;;;;6.90;5.43;;;19.60;99.90;;;;;;5017361;28;20490;-65
2023/05/15 10:35:38;;;;;;;6.00;5.15;;;19.60;99.90;;;;;;5018021;28;20096;-65
2023/05/15 10:38:05;;;;;;;7.63;5.22;;;19.60;99.90;;;;;;5017368;28;20097;-66
2023/05/15 10:40:35;;;;;;;6.32;5.18;;;19.70;99.90;;;;;;5017348;28;20056;-65
2023/05/15 10:43:02;;;;;;;7.13;5.82;;;19.80;99.90;;;;;;5017360;28;20053;-65
2023/05/15 10:45:29;;;;;;;6.28;4.22;;;19.90;99.90;;;;;;5017258;28;20042;-64
2023/05/15 10:47:56;;;;;;;5.47;4.20;;;20.00;99.90;;;;;;5016870;28;20526;-64
2023/05/15 10:50:22;;;;;;;8.05;4.30;;;20.10;99.90;;;;;;5017659;28;20406;-64
2023/05/15 10:52:51;;;;;;;6.88;5.70;;;20.40;99.90;;;;;;5017009;28;20050;-64
2023/05/15 10:55:18;;;;;;;6.05;4.53;;;20.70;99.90;;;;;;5017018;28;20042;-65
2023/05/15 10:57:47;;;;;;;6.30;4.70;;;21.00;99.90;;;;;;5017300;28;20394;-64
2023/05/15 11:00:39;;;;;;;6.97;5.15;;;21.20;99.90;;;;;;5017115;28;20449;-64
2023/05/15 11:03:05;;;;;;;7.00;5.07;;;21.20;99.90;;;;;;5017334;28;20042;-64
2023/05/15 11:06:10;;;;;;;6.30;4.70;;;21.30;99.90;;;;;;5017507;28;20129;-64
2023/05/15 11:08:40;;;;;;;7.90;4.35;;;21.30;99.90;;;;;;5016843;28;20046;-65
2023/05/15 11:11:06;;;;;;;4.43;4.03;;;21.30;99.90;;;;;;5016863;28;20132;-66
2023/05/15 11:14:05;;;;;;;5.32;3.58;;;21.40;99.90;;;;;;5016724;28;20195;-65
2023/05/15 11:16:52;;;;;;;7.05;4.03;;;21.60;99.90;;;;;;5004438;28;20156;-64
2023/05/15 11:19:35;;;;;;;5.60;4.05;;;21.80;99.90;;;;;;5016682;28;20100;-64
2023/05/15 11:22:15;;;;;;;5.35;4.05;;;21.90;99.90;;;;;;5016413;28;20053;-65
2023/05/15 11:24:49;;;;;;;4.10;3.55;;;21.90;99.90;;;;;;5017341;28;20046;-65
2023/05/15 11:27:36;;;;;;;4.90;3.88;;;21.80;99.90;;;;;;5016137;28;20046;-65
2023/05/15 11:30:20;;;;;;;6.00;4.28;;;21.80;99.90;;;;;;5016274;28;20053;-65
2023/05/15 11:32:46;;;;;;;5.55;4.00;;;22.00;99.90;;;;;;5016309;28;20042;-65
2023/05/15 11:35:31;;;;;;;5.25;4.28;;;22.10;99.90;;;;;;5016324;28;20060;-65
2023/05/15 11:37:58;;;;;;;5.90;4.90;;;22.20;99.90;;;;;;5016373;28;20506;-65
2023/05/15 11:40:26;;;;;;;7.07;4.88;;;22.40;99.90;;;;;;5016337;28;20499;-65
2023/05/15 11:43:02;;;;;;;5.32;4.82;;;22.50;99.90;;;;;;5016256;28;20112;-65
2023/05/15 11:45:38;;;;;;;;;;;22.10;99.90;;;;;;5017114;28;20048;-65
2023/05/15 11:48:06;;;;;;;5.30;4.45;;;21.90;99.90;;;;;;5016193;28;19944;-66
2023/05/15 11:50:33;;;;;;;6.28;4.70;;;22.00;99.90;;;;;;5016604;28;20096;-65
2023/05/15 11:53:04;;;;;;;7.32;4.35;;;22.00;99.90;;;;;;5015997;28;20049;-65
2023/05/15 11:55:32;;;;;;;7.70;4.65;;;22.10;99.90;;;;;;5015535;28;20104;-65
2023/05/15 11:57:58;;;;;;;5.30;4.80;;;22.00;99.90;;;;;;5016140;28;20133;-65
2023/05/15 12:00:24;;;;;;;5.50;5.00;;;21.90;99.90;;;;;;5014947;28;20474;-65
2023/05/15 12:02:49;;;;;;;6.28;4.68;;;21.80;99.90;;;;;;5015668;28;20056;-65
2023/05/15 12:05:15;;;;;;;6.32;5.05;;;21.80;99.90;;;;;;5015556;28;20061;-65
2023/05/15 12:07:42;;;;;;;6.75;6.05;;;22.10;99.90;;;;;;5015779;28;20056;-65
2023/05/15 12:10:11;;;;;;;7.03;5.10;;;22.20;99.90;;;;;;5015800;28;20103;-65
2023/05/15 12:12:47;;;;;;;7.00;5.57;;;22.20;99.90;;;;;;5015999;28;20077;-66
2023/05/15 12:15:14;;;;;;;5.82;5.05;;;22.20;99.90;;;;;;5015543;28;20037;-66
2023/05/15 12:17:40;;;;;;;6.20;5.60;;;22.30;99.90;;;;;;5015611;28;20056;-66
2023/05/15 12:20:08;;;;;;;5.88;5.13;;;22.20;99.90;;;;;;5015510;28;20046;-67
2023/05/15 12:22:43;;;;;;;6.75;5.50;;;21.90;99.90;;;;;;5015309;28;20068;-66
2023/05/15 12:25:11;;;;;;;6.55;5.85;;;21.70;99.90;;;;;;5014871;28;20045;-66
2023/05/15 12:27:38;;;;;;;6.25;5.10;;;21.80;99.90;;;;;;5015338;28;20144;-66
2023/05/15 12:30:05;;;;;;;5.82;5.20;;;21.70;99.90;;;;;;5015924;28;20151;-66
2023/05/15 12:32:35;;;;;;;6.13;5.03;;;22.00;99.90;;;;;;5015224;28;20062;-66
2023/05/15 12:35:02;;;;;;;6.85;5.28;;;22.10;99.90;;;;;;5016094;28;20068;-65
2023/05/15 12:37:31;;;;;;;6.55;5.90;;;22.10;99.90;;;;;;5014900;28;20087;-66